You are not logged in, Click here to log in

Flight OZJ777

  • Airlines / 航空公司: OZJ777
  • Flown By / 飛行員: Stone Chang
  • Departure Airport / 出發機場: 臺灣桃園國際機場TPE
  • Arrival Airport / 到達機場: 臺北松山機場TSA
  • Aircraft Flown / 機型: J330-243
  • Aircraft Registration / 編號: B16309
  • Flight Distance / 距離: 17 Nautical Miles
  • Flight Time / 飛行時間: 00.09.51
  • Flight Level / 巡航高度: 2500 ft
  • ACARS / 航機通信定址與報告系統: kACARSII
  • Flight Type / 類別: Passenger / 客機
  • Touchdown / 觸地率: -293.74 ft/min
  • Date Submitted / 航班完成: 08/06/2017 09:07:23am
  • Flight Status / 狀態: Landed at 09:12z and Was On Time
  • Route / 航道: DCT
Flight Details
Gross Revenue / 航班收入:
(Load=291 units, either pax or lbs of cargo, @ $ 17.00 per unit)
$ 4, 947.00
Fuel Cost / 燃料支出:
(5801.9 kg of fuel used @ $ 0.54 per pound)
$ 3, 133.03
Pilot Pay / 終點工資:
(This pilot earns $ 350.00 p/hr)
$ 31.50
Expense / 其他支出:
$ 3, 957.60
Net Revenue / 航班收入:
($ -2, 175.13)

ACARS Scoring System:

Airport METAR :

[00:56z] METAR: RCTP 060030Z 25018KT 9999 FEW020 SCT060 32/25 Q1005 NOSIG RMK A2969
[01:02z] METAR: RCSS 060030Z 25010KT 9999 FEW025 BKN250 33/25 Q1005 NOSIG RMK 25007KT/R10 A2969

Deduction :

[00:53z] Score Triggered - Taxi Speed | Threshold: 30 | Actual: 38 knots | Value: -5 | Delay: 5
[00:54z] Score Triggered - Taxi Speed | Threshold: 30 | Actual: 42 knots | Value: -5 | Delay: 5
[00:56z] Score Triggered - Light Beacon | Value: -5 | Delay: 0
[01:04z] Score Triggered - Taxi Speed | Threshold: 30 | Actual: 38 knots | Value: -5 | Delay: 5

Score :

[01:07z] Final Score: 80

Additional Log Information:

檢視資料 / View Log

Route Map